QTR915 NZAA-OTHH
Flight info
| Callsign | QTR915 |
|---|---|
| Flight time | N/A |
| Altitude | 34000 |
| Route | MADEP N774 TESAT A576 PKS/N0491F360 J141 LEC T21 NONAX/N0493F380 T21 PD N509 MUTMI/N0487F400 N509 ELATI N640 KAT R461 MDI M300 KADOL/N0483F430 M300 EMURU N563 SODEX/N0510F340 N563 VUXOD |
| Aircraft | A359/H-SDE2E3GHIJ3J4J5LM1ORWXY/LB1D1 |
Departure
| Time | 2026-05-05 15:15 |
|---|---|
| Airport | Auckland International Airport (NZAA) |
Arrival
| Time | N/A |
|---|---|
| Airport | Hamad International Airport (OTHH) |
| Time | Latitude | Longitude | Altitude | Speed | Heading |
|---|---|---|---|---|---|
| 2026-05-05 14:56 | -37.00708 | 174.78305 | 33 ft | 0 kts | 296° |
| 2026-05-05 15:06 | -37.00708 | 174.78307 | 33 ft | 2 kts | 296° |
| 2026-05-05 15:07 | -37.00719 | 174.78336 | 33 ft | 4 kts | 295° |
| 2026-05-05 15:07 | -37.00728 | 174.78361 | 34 ft | 5 kts | 283° |
| 2026-05-05 15:07 | -37.00730 | 174.78386 | 34 ft | 6 kts | 245° |
| 2026-05-05 15:07 | -37.00718 | 174.78407 | 31 ft | 4 kts | 211° |
| 2026-05-05 15:08 | -37.00694 | 174.78422 | 32 ft | 4 kts | 204° |
| 2026-05-05 15:08 | -37.00682 | 174.78429 | 32 ft | 1 kts | 206° |
| 2026-05-05 15:10 | -37.00684 | 174.78427 | 32 ft | 2 kts | 206° |
| 2026-05-05 15:11 | -37.00726 | 174.78402 | 31 ft | 11 kts | 206° |
| 2026-05-05 15:11 | -37.00817 | 174.78375 | 35 ft | 17 kts | 187° |
| 2026-05-05 15:11 | -37.00945 | 174.78364 | 35 ft | 19 kts | 174° |
| 2026-05-05 15:11 | -37.01063 | 174.78363 | 36 ft | 19 kts | 210° |
| 2026-05-05 15:12 | -37.01121 | 174.78226 | 34 ft | 18 kts | 251° |
| 2026-05-05 15:12 | -37.01172 | 174.78044 | 34 ft | 25 kts | 249° |
| 2026-05-05 15:12 | -37.01236 | 174.77813 | 32 ft | 27 kts | 251° |
| 2026-05-05 15:12 | -37.01295 | 174.77597 | 32 ft | 20 kts | 250° |
| 2026-05-05 15:13 | -37.01349 | 174.77403 | 32 ft | 27 kts | 251° |
| 2026-05-05 15:13 | -37.01414 | 174.77169 | 31 ft | 28 kts | 246° |
| 2026-05-05 15:13 | -37.01576 | 174.77077 | 32 ft | 27 kts | 193° |
| 2026-05-05 15:13 | -37.01682 | 174.76878 | 28 ft | 31 kts | 265° |
| 2026-05-05 15:14 | -37.01691 | 174.76719 | 27 ft | 10 kts | 214° |
| 2026-05-05 15:14 | -37.01722 | 174.76740 | 28 ft | 6 kts | 111° |
| 2026-05-05 15:14 | -37.01706 | 174.76821 | 28 ft | 14 kts | 68° |
| 2026-05-05 15:14 | -37.01639 | 174.77058 | 31 ft | 56 kts | 70° |
| 2026-05-05 15:15 | -37.01434 | 174.77794 | 34 ft | 121 kts | 71° |
| 2026-05-05 15:15 | -37.01092 | 174.79031 | 37 ft | 177 kts | 71° |
| 2026-05-05 15:15 | -37.00665 | 174.80510 | 767 ft | 173 kts | 70° |
| 2026-05-05 15:15 | -37.00284 | 174.81916 | 1589 ft | 174 kts | 70° |
| 2026-05-05 15:16 | -37.00022 | 174.82889 | 1784 ft | 182 kts | 69° |
| 2026-05-05 15:16 | -36.99596 | 174.84448 | 2073 ft | 195 kts | 68° |
| 2026-05-05 15:16 | -36.98999 | 174.86617 | 2550 ft | 206 kts | 68° |
| 2026-05-05 15:16 | -36.98504 | 174.88391 | 2721 ft | 226 kts | 68° |
| 2026-05-05 15:17 | -36.97966 | 174.90318 | 2990 ft | 241 kts | 68° |
| 2026-05-05 15:17 | -36.97590 | 174.91668 | 3304 ft | 246 kts | 68° |
| 2026-05-05 15:17 | -36.97023 | 174.93710 | 3822 ft | 251 kts | 68° |
| 2026-05-05 15:17 | -36.96454 | 174.95759 | 4323 ft | 255 kts | 68° |
| 2026-05-05 15:18 | -36.95866 | 174.97868 | 4847 ft | 259 kts | 69° |
| 2026-05-05 15:18 | -36.95166 | 174.99963 | 5334 ft | 262 kts | 58° |
| 2026-05-05 15:18 | -36.93945 | 175.01626 | 5874 ft | 261 kts | 32° |
| 2026-05-05 15:18 | -36.92267 | 175.02438 | 6432 ft | 262 kts | 6° |
| 2026-05-05 15:19 | -36.90462 | 175.02224 | 7002 ft | 264 kts | 341° |
| 2026-05-05 15:19 | -36.88903 | 175.01008 | 7528 ft | 269 kts | 315° |
| 2026-05-05 15:19 | -36.87907 | 174.99020 | 8083 ft | 275 kts | 293° |
| 2026-05-05 15:19 | -36.87183 | 174.96795 | 8635 ft | 278 kts | 299° |
| 2026-05-05 15:20 | -36.86012 | 174.94888 | 9202 ft | 277 kts | 317° |
| 2026-05-05 15:20 | -36.84667 | 174.93145 | 9765 ft | 282 kts | 309° |
| 2026-05-05 15:20 | -36.83779 | 174.90947 | 10267 ft | 290 kts | 285° |
| 2026-05-05 15:20 | -36.83631 | 174.88364 | 10513 ft | 307 kts | 268° |
| 2026-05-05 15:21 | -36.83813 | 174.85676 | 10721 ft | 323 kts | 266° |
| 2026-05-05 15:21 | -36.84035 | 174.82786 | 10945 ft | 337 kts | 266° |
| 2026-05-05 15:21 | -36.84245 | 174.79848 | 11162 ft | 351 kts | 266° |
| 2026-05-05 15:21 | -36.84453 | 174.76762 | 11375 ft | 364 kts | 266° |
| 2026-05-05 15:22 | -36.84663 | 174.73548 | 11598 ft | 377 kts | 266° |
| 2026-05-05 15:22 | -36.84875 | 174.70247 | 11868 ft | 386 kts | 266° |
| 2026-05-05 15:22 | -36.85088 | 174.66878 | 12283 ft | 391 kts | 266° |
| 2026-05-05 15:22 | -36.85301 | 174.63488 | 12733 ft | 394 kts | 266° |
| 2026-05-05 15:23 | -36.85515 | 174.60061 | 13211 ft | 397 kts | 266° |
| 2026-05-05 15:23 | -36.85728 | 174.56613 | 13688 ft | 399 kts | 266° |
| 2026-05-05 15:23 | -36.85941 | 174.53146 | 14158 ft | 402 kts | 266° |
| 2026-05-05 15:23 | -36.86154 | 174.49655 | 14581 ft | 405 kts | 267° |
| 2026-05-05 15:24 | -36.86368 | 174.46140 | 15013 ft | 406 kts | 267° |
| 2026-05-05 15:24 | -36.86582 | 174.42614 | 15450 ft | 408 kts | 267° |
| 2026-05-05 15:24 | -36.86795 | 174.39063 | 15911 ft | 410 kts | 267° |
| 2026-05-05 15:24 | -36.87008 | 174.35500 | 16378 ft | 413 kts | 267° |
| 2026-05-05 15:25 | -36.87221 | 174.31920 | 16869 ft | 414 kts | 267° |
| 2026-05-05 15:25 | -36.87432 | 174.28367 | 17346 ft | 416 kts | 267° |
| 2026-05-05 15:25 | -36.87645 | 174.24745 | 17826 ft | 418 kts | 267° |
| 2026-05-05 15:25 | -36.87858 | 174.21109 | 18294 ft | 420 kts | 268° |
| 2026-05-05 15:26 | -36.88071 | 174.17459 | 18749 ft | 423 kts | 268° |
| 2026-05-05 15:26 | -36.88284 | 174.13783 | 19171 ft | 425 kts | 267° |
| 2026-05-05 15:26 | -36.88497 | 174.10096 | 19605 ft | 426 kts | 267° |
| 2026-05-05 15:26 | -36.88709 | 174.06399 | 20048 ft | 428 kts | 267° |
| 2026-05-05 15:27 | -36.88919 | 174.02688 | 20488 ft | 429 kts | 267° |
| 2026-05-05 15:27 | -36.88955 | 173.98950 | 20919 ft | 430 kts | 275° |
| 2026-05-05 15:27 | -36.88550 | 173.95239 | 21362 ft | 432 kts | 280° |
| 2026-05-05 15:27 | -36.88019 | 173.91537 | 21781 ft | 434 kts | 280° |
| 2026-05-05 15:28 | -36.87476 | 173.87823 | 22203 ft | 437 kts | 280° |
| 2026-05-05 15:28 | -36.86925 | 173.84074 | 22620 ft | 439 kts | 280° |
| 2026-05-05 15:28 | -36.86379 | 173.80314 | 23037 ft | 442 kts | 279° |
| 2026-05-05 15:28 | -36.85829 | 173.76520 | 23461 ft | 444 kts | 279° |
| 2026-05-05 15:29 | -36.85276 | 173.72719 | 23873 ft | 446 kts | 279° |
| 2026-05-05 15:29 | -36.84725 | 173.68944 | 24209 ft | 449 kts | 279° |
| 2026-05-05 15:29 | -36.84167 | 173.65091 | 24554 ft | 451 kts | 279° |
| 2026-05-05 15:29 | -36.83605 | 173.61219 | 24887 ft | 454 kts | 279° |
| 2026-05-05 15:30 | -36.83039 | 173.57331 | 25223 ft | 456 kts | 279° |
| 2026-05-05 15:30 | -36.82470 | 173.53433 | 25549 ft | 458 kts | 279° |
| 2026-05-05 15:30 | -36.81896 | 173.49516 | 25891 ft | 460 kts | 279° |
| 2026-05-05 15:30 | -36.81317 | 173.45573 | 26211 ft | 463 kts | 279° |
| 2026-05-05 15:31 | -36.80733 | 173.41603 | 26546 ft | 465 kts | 279° |
| 2026-05-05 15:31 | -36.80147 | 173.37633 | 26860 ft | 467 kts | 279° |
| 2026-05-05 15:31 | -36.79558 | 173.33637 | 27176 ft | 469 kts | 278° |
| 2026-05-05 15:31 | -36.78969 | 173.29620 | 27485 ft | 471 kts | 278° |
| 2026-05-05 15:32 | -36.78378 | 173.25595 | 27786 ft | 473 kts | 278° |
| 2026-05-05 15:32 | -36.77781 | 173.21543 | 28073 ft | 475 kts | 278° |
| 2026-05-05 15:32 | -36.77181 | 173.17483 | 28356 ft | 477 kts | 278° |
| 2026-05-05 15:32 | -36.76584 | 173.13457 | 28643 ft | 479 kts | 278° |
| 2026-05-05 15:33 | -36.75968 | 173.09309 | 28924 ft | 480 kts | 278° |
| 2026-05-05 15:33 | -36.75364 | 173.05258 | 29173 ft | 482 kts | 278° |
| 2026-05-05 15:33 | -36.74750 | 173.01148 | 29533 ft | 482 kts | 278° |
| 2026-05-05 15:33 | -36.74134 | 172.97044 | 29951 ft | 480 kts | 278° |
| 2026-05-05 15:34 | -36.73521 | 172.92958 | 30344 ft | 479 kts | 278° |
| 2026-05-05 15:34 | -36.72907 | 172.88878 | 30678 ft | 478 kts | 278° |
| 2026-05-05 15:34 | -36.72292 | 172.84802 | 30972 ft | 478 kts | 278° |
| 2026-05-05 15:34 | -36.71676 | 172.80733 | 31269 ft | 477 kts | 278° |
| 2026-05-05 15:35 | -36.71059 | 172.76659 | 31559 ft | 476 kts | 278° |
| 2026-05-05 15:35 | -36.70444 | 172.72613 | 31837 ft | 476 kts | 278° |
| 2026-05-05 15:35 | -36.69835 | 172.68619 | 32106 ft | 475 kts | 278° |
| 2026-05-05 15:35 | -36.69218 | 172.64574 | 32376 ft | 474 kts | 278° |
| 2026-05-05 15:36 | -36.68600 | 172.60536 | 32645 ft | 473 kts | 278° |
| 2026-05-05 15:36 | -36.67981 | 172.56506 | 32900 ft | 473 kts | 279° |
| 2026-05-05 15:36 | -36.67364 | 172.52491 | 33152 ft | 472 kts | 279° |
| 2026-05-05 15:36 | -36.66745 | 172.48472 | 33416 ft | 471 kts | 279° |
| 2026-05-05 15:37 | -36.66126 | 172.44467 | 33664 ft | 470 kts | 279° |
| 2026-05-05 15:37 | -36.65506 | 172.40467 | 33903 ft | 470 kts | 279° |
| 2026-05-05 15:37 | -36.64886 | 172.36471 | 34137 ft | 469 kts | 279° |
| 2026-05-05 15:37 | -36.64273 | 172.32529 | 34338 ft | 469 kts | 279° |
| 2026-05-05 15:38 | -36.63650 | 172.28532 | 34369 ft | 473 kts | 279° |
| 2026-05-05 15:38 | -36.62388 | 172.20464 | 34375 ft | 475 kts | 279° |
| 2026-05-05 15:39 | -36.61119 | 172.12395 | 34376 ft | 474 kts | 279° |
| 2026-05-05 15:39 | -36.59845 | 172.04329 | 34367 ft | 474 kts | 279° |
| 2026-05-05 15:40 | -36.58577 | 171.96333 | 34369 ft | 474 kts | 278° |
| 2026-05-05 15:40 | -36.57295 | 171.88294 | 34367 ft | 473 kts | 278° |
| 2026-05-05 15:41 | -36.56009 | 171.80261 | 34360 ft | 473 kts | 278° |
| 2026-05-05 15:41 | -36.54719 | 171.72240 | 34369 ft | 473 kts | 278° |
| 2026-05-05 15:42 | -36.53424 | 171.64225 | 34362 ft | 472 kts | 278° |
| 2026-05-05 15:42 | -36.52125 | 171.56221 | 34359 ft | 472 kts | 278° |
| 2026-05-05 15:43 | -36.50829 | 171.48266 | 34357 ft | 471 kts | 278° |
| 2026-05-05 15:43 | -36.49522 | 171.40282 | 34356 ft | 471 kts | 278° |
| 2026-05-05 15:44 | -36.48209 | 171.32295 | 34356 ft | 470 kts | 278° |
| 2026-05-05 15:44 | -36.46894 | 171.24332 | 34355 ft | 470 kts | 278° |
| 2026-05-05 15:45 | -36.45585 | 171.16443 | 34349 ft | 469 kts | 278° |
| 2026-05-05 15:45 | -36.44265 | 171.08515 | 34353 ft | 469 kts | 278° |
| 2026-05-05 15:46 | -36.42931 | 171.00541 | 34349 ft | 468 kts | 278° |
| 2026-05-05 15:46 | -36.41603 | 170.92638 | 34345 ft | 467 kts | 278° |
| 2026-05-05 15:47 | -36.40279 | 170.84790 | 34346 ft | 467 kts | 278° |
| 2026-05-05 15:47 | -36.38942 | 170.76897 | 34343 ft | 466 kts | 278° |
| 2026-05-05 15:48 | -36.38083 | 170.68969 | 34347 ft | 462 kts | 271° |
| 2026-05-05 15:48 | -36.37587 | 170.61025 | 34340 ft | 462 kts | 271° |
| 2026-05-05 15:49 | -36.37126 | 170.53064 | 34336 ft | 462 kts | 271° |
| 2026-05-05 15:49 | -36.36637 | 170.45119 | 34335 ft | 462 kts | 271° |
| 2026-05-05 15:50 | -36.36129 | 170.37221 | 34333 ft | 462 kts | 271° |
| 2026-05-05 15:50 | -36.35609 | 170.29281 | 34332 ft | 462 kts | 271° |
| 2026-05-05 15:51 | -36.35083 | 170.21336 | 34329 ft | 462 kts | 271° |
| 2026-05-05 15:51 | -36.34553 | 170.13389 | 34335 ft | 461 kts | 271° |
| 2026-05-05 15:52 | -36.34019 | 170.05455 | 34322 ft | 461 kts | 271° |
| 2026-05-05 15:52 | -36.33480 | 169.97530 | 34331 ft | 461 kts | 271° |
| 2026-05-05 15:53 | -36.32936 | 169.89610 | 34327 ft | 461 kts | 271° |